sensor_id;sensor_type;location;lat;lon;timestamp;P1;durP1;ratioP1;P2;durP2;ratioP2
1569;SDS011;778;50.120;8.698;2023-01-29T00:00:10;7.57;;;6.20;;
1569;SDS011;778;50.120;8.698;2023-01-29T00:02:41;7.13;;;6.30;;
1569;SDS011;778;50.120;8.698;2023-01-29T00:05:11;8.23;;;7.53;;
1569;SDS011;778;50.120;8.698;2023-01-29T00:07:53;8.47;;;7.07;;
1569;SDS011;778;50.120;8.698;2023-01-29T00:10:22;7.37;;;6.70;;
1569;SDS011;778;50.120;8.698;2023-01-29T00:12:51;9.60;;;7.10;;
1569;SDS011;778;50.120;8.698;2023-01-29T00:15:19;7.00;;;6.37;;
1569;SDS011;778;50.120;8.698;2023-01-29T00:17:48;9.20;;;6.93;;
1569;SDS011;778;50.120;8.698;2023-01-29T00:20:18;8.00;;;7.30;;
1569;SDS011;778;50.120;8.698;2023-01-29T00:22:46;6.17;;;5.67;;
1569;SDS011;778;50.120;8.698;2023-01-29T00:25:15;5.87;;;5.27;;
1569;SDS011;778;50.120;8.698;2023-01-29T00:27:43;6.87;;;6.20;;
1569;SDS011;778;50.120;8.698;2023-01-29T00:30:12;7.30;;;6.07;;
1569;SDS011;778;50.120;8.698;2023-01-29T00:32:45;7.00;;;6.40;;
1569;SDS011;778;50.120;8.698;2023-01-29T00:35:13;6.70;;;6.10;;
1569;SDS011;778;50.120;8.698;2023-01-29T00:37:43;8.00;;;6.70;;
1569;SDS011;778;50.120;8.698;2023-01-29T00:40:12;8.17;;;7.37;;
1569;SDS011;778;50.120;8.698;2023-01-29T00:42:42;7.80;;;6.97;;
1569;SDS011;778;50.120;8.698;2023-01-29T00:45:29;6.10;;;5.60;;
1569;SDS011;778;50.120;8.698;2023-01-29T00:47:57;6.70;;;6.10;;
1569;SDS011;778;50.120;8.698;2023-01-29T00:50:26;7.07;;;6.47;;
1569;SDS011;778;50.120;8.698;2023-01-29T00:52:55;7.60;;;6.90;;
1569;SDS011;778;50.120;8.698;2023-01-29T00:55:24;7.70;;;6.90;;
1569;SDS011;778;50.120;8.698;2023-01-29T00:57:53;6.80;;;6.20;;
1569;SDS011;778;50.120;8.698;2023-01-29T01:00:21;8.17;;;7.03;;
1569;SDS011;778;50.120;8.698;2023-01-29T01:02:50;6.77;;;6.07;;
1569;SDS011;778;50.120;8.698;2023-01-29T01:05:33;7.23;;;6.30;;
1569;SDS011;778;50.120;8.698;2023-01-29T01:08:04;6.00;;;5.47;;
1569;SDS011;778;50.120;8.698;2023-01-29T01:10:58;7.40;;;5.50;;
1569;SDS011;778;50.120;8.698;2023-01-29T01:13:27;11.20;;;5.10;;
1569;SDS011;778;50.120;8.698;2023-01-29T01:15:55;5.93;;;5.43;;
1569;SDS011;778;50.120;8.698;2023-01-29T01:18:24;6.10;;;5.50;;
1569;SDS011;778;50.120;8.698;2023-01-29T01:20:56;6.90;;;5.73;;
1569;SDS011;778;50.120;8.698;2023-01-29T01:23:26;6.57;;;5.87;;
1569;SDS011;778;50.120;8.698;2023-01-29T01:25:55;7.40;;;6.67;;
1569;SDS011;778;50.120;8.698;2023-01-29T01:28:24;9.80;;;6.57;;
1569;SDS011;778;50.120;8.698;2023-01-29T01:30:53;8.30;;;6.57;;
1569;SDS011;778;50.120;8.698;2023-01-29T01:33:21;7.20;;;6.50;;
1569;SDS011;778;50.120;8.698;2023-01-29T01:35:50;6.77;;;6.17;;
1569;SDS011;778;50.120;8.698;2023-01-29T01:38:19;8.13;;;7.30;;
1569;SDS011;778;50.120;8.698;2023-01-29T01:40:49;10.30;;;6.30;;
1569;SDS011;778;50.120;8.698;2023-01-29T01:43:18;5.07;;;4.57;;
1569;SDS011;778;50.120;8.698;2023-01-29T01:45:46;6.00;;;5.50;;
1569;SDS011;778;50.120;8.698;2023-01-29T01:48:16;10.63;;;5.70;;
1569;SDS011;778;50.120;8.698;2023-01-29T01:50:48;6.23;;;5.73;;
1569;SDS011;778;50.120;8.698;2023-01-29T01:53:21;7.00;;;6.30;;
1569;SDS011;778;50.120;8.698;2023-01-29T01:55:57;5.97;;;5.47;;
1569;SDS011;778;50.120;8.698;2023-01-29T01:58:29;5.87;;;5.47;;
1569;SDS011;778;50.120;8.698;2023-01-29T02:01:01;8.90;;;6.43;;
1569;SDS011;778;50.120;8.698;2023-01-29T02:03:31;6.10;;;5.50;;
1569;SDS011;778;50.120;8.698;2023-01-29T02:06:22;7.40;;;5.97;;
1569;SDS011;778;50.120;8.698;2023-01-29T02:09:08;6.70;;;6.10;;
1569;SDS011;778;50.120;8.698;2023-01-29T02:12:03;6.30;;;5.70;;
1569;SDS011;778;50.120;8.698;2023-01-29T02:14:35;6.43;;;5.83;;
1569;SDS011;778;50.120;8.698;2023-01-29T02:17:06;7.47;;;6.77;;
1569;SDS011;778;50.120;8.698;2023-01-29T02:19:40;8.00;;;7.20;;
1569;SDS011;778;50.120;8.698;2023-01-29T02:22:23;6.80;;;6.20;;
1569;SDS011;778;50.120;8.698;2023-01-29T02:25:28;6.90;;;6.30;;
1569;SDS011;778;50.120;8.698;2023-01-29T02:28:35;7.80;;;7.10;;
1569;SDS011;778;50.120;8.698;2023-01-29T02:31:16;8.00;;;7.10;;
1569;SDS011;778;50.120;8.698;2023-01-29T02:33:59;7.40;;;6.70;;
1569;SDS011;778;50.120;8.698;2023-01-29T02:36:36;7.70;;;6.97;;
1569;SDS011;778;50.120;8.698;2023-01-29T02:39:13;6.77;;;5.97;;
1569;SDS011;778;50.120;8.698;2023-01-29T02:41:51;6.77;;;6.07;;
1569;SDS011;778;50.120;8.698;2023-01-29T02:44:32;6.43;;;5.93;;
1569;SDS011;778;50.120;8.698;2023-01-29T02:47:08;8.77;;;7.97;;
1569;SDS011;778;50.120;8.698;2023-01-29T02:49:44;8.80;;;7.60;;
1569;SDS011;778;50.120;8.698;2023-01-29T02:52:16;8.13;;;7.30;;
1569;SDS011;778;50.120;8.698;2023-01-29T02:54:50;9.93;;;7.37;;
1569;SDS011;778;50.120;8.698;2023-01-29T02:57:24;8.17;;;7.33;;
1569;SDS011;778;50.120;8.698;2023-01-29T02:59:59;7.60;;;6.80;;
1569;SDS011;778;50.120;8.698;2023-01-29T03:02:34;8.90;;;7.60;;
1569;SDS011;778;50.120;8.698;2023-01-29T03:05:12;9.40;;;7.23;;
1569;SDS011;778;50.120;8.698;2023-01-29T03:07:47;11.10;;;6.80;;
1569;SDS011;778;50.120;8.698;2023-01-29T03:10:29;10.43;;;7.73;;
1569;SDS011;778;50.120;8.698;2023-01-29T03:13:03;8.67;;;7.80;;
1569;SDS011;778;50.120;8.698;2023-01-29T03:15:41;8.33;;;7.53;;
1569;SDS011;778;50.120;8.698;2023-01-29T03:18:34;9.57;;;7.33;;
1569;SDS011;778;50.120;8.698;2023-01-29T03:21:10;8.70;;;7.80;;
1569;SDS011;778;50.120;8.698;2023-01-29T03:24:03;9.43;;;8.03;;
1569;SDS011;778;50.120;8.698;2023-01-29T03:26:54;10.60;;;7.37;;
1569;SDS011;778;50.120;8.698;2023-01-29T03:29:43;8.63;;;7.83;;
1569;SDS011;778;50.120;8.698;2023-01-29T03:32:55;8.37;;;7.57;;
1569;SDS011;778;50.120;8.698;2023-01-29T03:35:30;12.27;;;7.77;;
1569;SDS011;778;50.120;8.698;2023-01-29T03:38:06;7.67;;;7.00;;
1569;SDS011;778;50.120;8.698;2023-01-29T03:40:39;8.87;;;7.97;;
1569;SDS011;778;50.120;8.698;2023-01-29T03:43:18;7.17;;;6.47;;
1569;SDS011;778;50.120;8.698;2023-01-29T03:45:59;8.63;;;7.63;;
1569;SDS011;778;50.120;8.698;2023-01-29T03:48:35;7.53;;;6.60;;
1569;SDS011;778;50.120;8.698;2023-01-29T03:51:14;8.93;;;6.30;;
1569;SDS011;778;50.120;8.698;2023-01-29T03:53:52;7.77;;;6.90;;
1569;SDS011;778;50.120;8.698;2023-01-29T03:56:33;8.40;;;6.30;;
1569;SDS011;778;50.120;8.698;2023-01-29T03:59:15;8.70;;;7.40;;
1569;SDS011;778;50.120;8.698;2023-01-29T04:02:18;7.40;;;6.60;;
1569;SDS011;778;50.120;8.698;2023-01-29T04:05:00;7.10;;;6.13;;
1569;SDS011;778;50.120;8.698;2023-01-29T04:07:46;9.37;;;8.37;;
1569;SDS011;778;50.120;8.698;2023-01-29T04:10:20;9.60;;;8.60;;
1569;SDS011;778;50.120;8.698;2023-01-29T04:12:54;8.70;;;7.90;;
1569;SDS011;778;50.120;8.698;2023-01-29T04:15:28;7.10;;;6.50;;
1569;SDS011;778;50.120;8.698;2023-01-29T04:18:01;7.87;;;6.53;;
1569;SDS011;778;50.120;8.698;2023-01-29T04:20:48;7.47;;;6.70;;
1569;SDS011;778;50.120;8.698;2023-01-29T04:23:21;11.10;;;8.70;;
1569;SDS011;778;50.120;8.698;2023-01-29T04:25:52;8.70;;;7.80;;
1569;SDS011;778;50.120;8.698;2023-01-29T04:28:41;6.47;;;5.80;;
1569;SDS011;778;50.120;8.698;2023-01-29T04:31:23;6.73;;;6.17;;
1569;SDS011;778;50.120;8.698;2023-01-29T04:34:02;8.80;;;6.83;;
1569;SDS011;778;50.120;8.698;2023-01-29T04:36:45;7.40;;;6.63;;
1569;SDS011;778;50.120;8.698;2023-01-29T04:39:35;11.03;;;7.60;;
1569;SDS011;778;50.120;8.698;2023-01-29T04:42:12;9.60;;;8.20;;
1569;SDS011;778;50.120;8.698;2023-01-29T04:44:49;9.80;;;8.77;;
1569;SDS011;778;50.120;8.698;2023-01-29T04:47:28;9.50;;;8.40;;
1569;SDS011;778;50.120;8.698;2023-01-29T04:50:02;9.30;;;7.90;;
1569;SDS011;778;50.120;8.698;2023-01-29T04:52:44;12.50;;;8.40;;
1569;SDS011;778;50.120;8.698;2023-01-29T04:55:20;9.73;;;8.17;;
1569;SDS011;778;50.120;8.698;2023-01-29T04:57:57;11.40;;;8.63;;
1569;SDS011;778;50.120;8.698;2023-01-29T05:00:36;7.33;;;6.70;;
1569;SDS011;778;50.120;8.698;2023-01-29T05:03:09;8.37;;;7.30;;
1569;SDS011;778;50.120;8.698;2023-01-29T05:05:42;8.70;;;7.80;;
1569;SDS011;778;50.120;8.698;2023-01-29T05:08:16;7.40;;;6.60;;
1569;SDS011;778;50.120;8.698;2023-01-29T05:10:49;8.70;;;7.90;;
1569;SDS011;778;50.120;8.698;2023-01-29T05:13:20;8.40;;;6.33;;
1569;SDS011;778;50.120;8.698;2023-01-29T05:15:51;7.80;;;6.70;;
1569;SDS011;778;50.120;8.698;2023-01-29T05:18:29;9.07;;;8.17;;
1569;SDS011;778;50.120;8.698;2023-01-29T05:20:59;8.50;;;7.70;;
1569;SDS011;778;50.120;8.698;2023-01-29T05:23:33;8.23;;;7.50;;
1569;SDS011;778;50.120;8.698;2023-01-29T05:26:01;9.63;;;7.67;;
1569;SDS011;778;50.120;8.698;2023-01-29T05:28:31;8.60;;;7.20;;
1569;SDS011;778;50.120;8.698;2023-01-29T05:30:58;8.13;;;7.33;;
1569;SDS011;778;50.120;8.698;2023-01-29T05:33:27;8.40;;;7.37;;
1569;SDS011;778;50.120;8.698;2023-01-29T05:35:58;7.50;;;6.67;;
1569;SDS011;778;50.120;8.698;2023-01-29T05:38:26;9.30;;;8.40;;
1569;SDS011;778;50.120;8.698;2023-01-29T05:40:58;11.17;;;7.30;;
1569;SDS011;778;50.120;8.698;2023-01-29T05:43:26;8.93;;;8.13;;
1569;SDS011;778;50.120;8.698;2023-01-29T05:45:55;10.23;;;7.50;;
1569;SDS011;778;50.120;8.698;2023-01-29T05:48:26;10.13;;;7.57;;
1569;SDS011;778;50.120;8.698;2023-01-29T05:50:58;9.93;;;8.33;;
1569;SDS011;778;50.120;8.698;2023-01-29T05:53:27;8.33;;;7.50;;
1569;SDS011;778;50.120;8.698;2023-01-29T05:55:59;8.47;;;7.27;;
1569;SDS011;778;50.120;8.698;2023-01-29T05:58:28;9.97;;;8.53;;
1569;SDS011;778;50.120;8.698;2023-01-29T06:00:57;9.47;;;7.70;;
1569;SDS011;778;50.120;8.698;2023-01-29T06:03:35;8.90;;;7.97;;
1569;SDS011;778;50.120;8.698;2023-01-29T06:06:03;10.10;;;9.10;;
1569;SDS011;778;50.120;8.698;2023-01-29T06:08:32;9.07;;;7.40;;
1569;SDS011;778;50.120;8.698;2023-01-29T06:11:02;9.13;;;8.23;;
1569;SDS011;778;50.120;8.698;2023-01-29T06:13:33;9.90;;;8.70;;
1569;SDS011;778;50.120;8.698;2023-01-29T06:16:03;10.43;;;8.10;;
1569;SDS011;778;50.120;8.698;2023-01-29T06:18:32;8.90;;;7.70;;
1569;SDS011;778;50.120;8.698;2023-01-29T06:21:02;7.90;;;7.13;;
1569;SDS011;778;50.120;8.698;2023-01-29T06:23:32;9.43;;;8.43;;
1569;SDS011;778;50.120;8.698;2023-01-29T06:26:03;8.73;;;7.83;;
1569;SDS011;778;50.120;8.698;2023-01-29T06:28:35;8.70;;;7.40;;
1569;SDS011;778;50.120;8.698;2023-01-29T06:31:04;8.13;;;7.33;;
1569;SDS011;778;50.120;8.698;2023-01-29T06:33:53;12.17;;;9.07;;
1569;SDS011;778;50.120;8.698;2023-01-29T06:36:22;8.80;;;7.93;;
1569;SDS011;778;50.120;8.698;2023-01-29T06:38:50;10.33;;;8.43;;
1569;SDS011;778;50.120;8.698;2023-01-29T06:41:20;10.27;;;9.27;;
1569;SDS011;778;50.120;8.698;2023-01-29T06:43:51;13.30;;;9.07;;
1569;SDS011;778;50.120;8.698;2023-01-29T06:46:19;14.00;;;9.13;;
1569;SDS011;778;50.120;8.698;2023-01-29T06:48:47;10.73;;;9.30;;
1569;SDS011;778;50.120;8.698;2023-01-29T06:51:16;12.10;;;10.00;;
1569;SDS011;778;50.120;8.698;2023-01-29T06:53:45;9.93;;;9.03;;
1569;SDS011;778;50.120;8.698;2023-01-29T06:56:13;11.07;;;9.13;;
1569;SDS011;778;50.120;8.698;2023-01-29T06:58:43;12.57;;;11.20;;
1569;SDS011;778;50.120;8.698;2023-01-29T07:01:11;10.07;;;8.90;;
1569;SDS011;778;50.120;8.698;2023-01-29T07:04:00;11.33;;;9.80;;
1569;SDS011;778;50.120;8.698;2023-01-29T07:06:29;13.13;;;9.77;;
1569;SDS011;778;50.120;8.698;2023-01-29T07:09:00;11.63;;;10.27;;
1569;SDS011;778;50.120;8.698;2023-01-29T07:11:29;12.07;;;10.77;;
1569;SDS011;778;50.120;8.698;2023-01-29T07:13:59;11.83;;;10.30;;
1569;SDS011;778;50.120;8.698;2023-01-29T07:16:28;10.80;;;9.70;;
1569;SDS011;778;50.120;8.698;2023-01-29T07:18:56;12.23;;;10.30;;
1569;SDS011;778;50.120;8.698;2023-01-29T07:21:25;12.73;;;10.73;;
1569;SDS011;778;50.120;8.698;2023-01-29T07:23:53;21.57;;;17.03;;
1569;SDS011;778;50.120;8.698;2023-01-29T07:26:22;14.33;;;11.40;;
1569;SDS011;778;50.120;8.698;2023-01-29T07:28:50;17.20;;;10.23;;
1569;SDS011;778;50.120;8.698;2023-01-29T07:31:20;14.93;;;11.10;;
1569;SDS011;778;50.120;8.698;2023-01-29T07:33:48;11.20;;;10.00;;
1569;SDS011;778;50.120;8.698;2023-01-29T07:36:17;12.97;;;10.27;;
1569;SDS011;778;50.120;8.698;2023-01-29T07:38:47;12.93;;;10.10;;
1569;SDS011;778;50.120;8.698;2023-01-29T07:41:17;13.40;;;10.60;;
1569;SDS011;778;50.120;8.698;2023-01-29T07:43:45;12.00;;;10.30;;
1569;SDS011;778;50.120;8.698;2023-01-29T07:46:14;12.50;;;10.20;;
1569;SDS011;778;50.120;8.698;2023-01-29T07:48:44;14.07;;;9.97;;
1569;SDS011;778;50.120;8.698;2023-01-29T07:51:12;16.20;;;12.07;;
1569;SDS011;778;50.120;8.698;2023-01-29T07:53:42;12.43;;;11.00;;
1569;SDS011;778;50.120;8.698;2023-01-29T07:56:10;12.77;;;11.33;;
1569;SDS011;778;50.120;8.698;2023-01-29T07:58:39;14.03;;;12.00;;
1569;SDS011;778;50.120;8.698;2023-01-29T08:01:07;14.50;;;11.77;;
1569;SDS011;778;50.120;8.698;2023-01-29T08:03:36;13.37;;;10.60;;
1569;SDS011;778;50.120;8.698;2023-01-29T08:06:06;15.00;;;11.40;;
1569;SDS011;778;50.120;8.698;2023-01-29T08:08:34;13.63;;;11.10;;
1569;SDS011;778;50.120;8.698;2023-01-29T08:11:03;15.40;;;11.37;;
1569;SDS011;778;50.120;8.698;2023-01-29T08:13:32;17.73;;;14.07;;
1569;SDS011;778;50.120;8.698;2023-01-29T08:16:01;13.30;;;10.63;;
1569;SDS011;778;50.120;8.698;2023-01-29T08:18:30;15.77;;;11.90;;
1569;SDS011;778;50.120;8.698;2023-01-29T08:20:59;13.70;;;11.40;;
1569;SDS011;778;50.120;8.698;2023-01-29T08:23:29;12.40;;;11.10;;
1569;SDS011;778;50.120;8.698;2023-01-29T08:25:57;14.03;;;11.80;;
1569;SDS011;778;50.120;8.698;2023-01-29T08:28:26;13.40;;;10.57;;
1569;SDS011;778;50.120;8.698;2023-01-29T08:30:54;12.20;;;10.23;;
1569;SDS011;778;50.120;8.698;2023-01-29T08:33:23;12.30;;;11.00;;
1569;SDS011;778;50.120;8.698;2023-01-29T08:36:05;13.40;;;12.00;;
1569;SDS011;778;50.120;8.698;2023-01-29T08:38:36;12.40;;;11.00;;
1569;SDS011;778;50.120;8.698;2023-01-29T08:41:04;17.40;;;12.83;;
1569;SDS011;778;50.120;8.698;2023-01-29T08:43:33;16.27;;;13.43;;
1569;SDS011;778;50.120;8.698;2023-01-29T08:46:04;22.70;;;11.90;;
1569;SDS011;778;50.120;8.698;2023-01-29T08:48:33;13.03;;;11.27;;
1569;SDS011;778;50.120;8.698;2023-01-29T08:51:02;11.40;;;9.97;;
1569;SDS011;778;50.120;8.698;2023-01-29T08:53:31;12.97;;;9.70;;
1569;SDS011;778;50.120;8.698;2023-01-29T08:56:01;13.00;;;10.40;;
1569;SDS011;778;50.120;8.698;2023-01-29T08:58:29;13.27;;;11.50;;
1569;SDS011;778;50.120;8.698;2023-01-29T09:01:04;15.80;;;11.33;;
1569;SDS011;778;50.120;8.698;2023-01-29T09:03:34;14.43;;;11.90;;
1569;SDS011;778;50.120;8.698;2023-01-29T09:06:02;11.70;;;10.13;;
1569;SDS011;778;50.120;8.698;2023-01-29T09:08:31;12.63;;;10.30;;
1569;SDS011;778;50.120;8.698;2023-01-29T09:11:01;13.40;;;9.87;;
1569;SDS011;778;50.120;8.698;2023-01-29T09:13:30;12.73;;;10.50;;
1569;SDS011;778;50.120;8.698;2023-01-29T09:15:58;12.30;;;10.30;;
1569;SDS011;778;50.120;8.698;2023-01-29T09:18:28;14.53;;;10.97;;
1569;SDS011;778;50.120;8.698;2023-01-29T09:20:57;14.73;;;11.97;;
1569;SDS011;778;50.120;8.698;2023-01-29T09:23:27;15.07;;;12.37;;
1569;SDS011;778;50.120;8.698;2023-01-29T09:25:56;13.70;;;11.07;;
1569;SDS011;778;50.120;8.698;2023-01-29T09:28:26;11.77;;;10.40;;
1569;SDS011;778;50.120;8.698;2023-01-29T09:30:55;14.67;;;11.40;;
1569;SDS011;778;50.120;8.698;2023-01-29T09:33:28;10.93;;;9.63;;
1569;SDS011;778;50.120;8.698;2023-01-29T09:35:57;12.17;;;10.07;;
1569;SDS011;778;50.120;8.698;2023-01-29T09:38:26;12.63;;;10.77;;
1569;SDS011;778;50.120;8.698;2023-01-29T09:40:57;12.33;;;10.07;;
1569;SDS011;778;50.120;8.698;2023-01-29T09:43:39;11.40;;;10.17;;
1569;SDS011;778;50.120;8.698;2023-01-29T09:46:16;12.00;;;10.30;;
1569;SDS011;778;50.120;8.698;2023-01-29T09:48:51;11.90;;;10.13;;
1569;SDS011;778;50.120;8.698;2023-01-29T09:51:27;9.87;;;8.50;;
1569;SDS011;778;50.120;8.698;2023-01-29T09:54:04;11.80;;;8.70;;
1569;SDS011;778;50.120;8.698;2023-01-29T09:56:42;11.10;;;9.40;;
1569;SDS011;778;50.120;8.698;2023-01-29T09:59:14;9.93;;;8.77;;
1569;SDS011;778;50.120;8.698;2023-01-29T10:01:47;11.40;;;9.83;;
1569;SDS011;778;50.120;8.698;2023-01-29T10:04:30;11.67;;;10.10;;
1569;SDS011;778;50.120;8.698;2023-01-29T10:07:23;10.50;;;9.43;;
1569;SDS011;778;50.120;8.698;2023-01-29T10:10:14;12.20;;;11.00;;
1569;SDS011;778;50.120;8.698;2023-01-29T10:12:59;10.20;;;9.13;;
1569;SDS011;778;50.120;8.698;2023-01-29T10:15:37;11.73;;;9.80;;
1569;SDS011;778;50.120;8.698;2023-01-29T10:21:38;12.80;;;9.60;;
1569;SDS011;778;50.120;8.698;2023-01-29T10:24:23;11.83;;;10.57;;
1569;SDS011;778;50.120;8.698;2023-01-29T10:26:58;10.90;;;9.00;;
1569;SDS011;778;50.120;8.698;2023-01-29T10:29:29;13.67;;;9.90;;
1569;SDS011;778;50.120;8.698;2023-01-29T10:32:00;11.03;;;8.20;;
1569;SDS011;778;50.120;8.698;2023-01-29T10:34:32;14.00;;;10.13;;
1569;SDS011;778;50.120;8.698;2023-01-29T10:37:07;11.20;;;9.93;;
1569;SDS011;778;50.120;8.698;2023-01-29T10:39:44;11.43;;;9.17;;
1569;SDS011;778;50.120;8.698;2023-01-29T10:42:17;9.83;;;8.47;;
1569;SDS011;778;50.120;8.698;2023-01-29T10:47:54;11.83;;;10.53;;
1569;SDS011;778;50.120;8.698;2023-01-29T10:51:00;11.97;;;9.40;;
1569;SDS011;778;50.120;8.698;2023-01-29T10:53:42;9.33;;;8.43;;
1569;SDS011;778;50.120;8.698;2023-01-29T10:56:32;11.93;;;8.63;;
1569;SDS011;778;50.120;8.698;2023-01-29T10:59:22;9.77;;;8.77;;
1569;SDS011;778;50.120;8.698;2023-01-29T11:02:07;9.47;;;8.57;;
1569;SDS011;778;50.120;8.698;2023-01-29T11:04:44;11.60;;;10.40;;
1569;SDS011;778;50.120;8.698;2023-01-29T11:07:13;12.17;;;9.33;;
1569;SDS011;778;50.120;8.698;2023-01-29T11:09:46;10.57;;;9.30;;
1569;SDS011;778;50.120;8.698;2023-01-29T11:12:24;11.17;;;10.03;;
1569;SDS011;778;50.120;8.698;2023-01-29T11:14:58;11.93;;;9.70;;
1569;SDS011;778;50.120;8.698;2023-01-29T11:17:31;11.10;;;9.20;;
1569;SDS011;778;50.120;8.698;2023-01-29T11:20:00;11.10;;;9.93;;
1569;SDS011;778;50.120;8.698;2023-01-29T11:22:30;11.63;;;8.73;;
1569;SDS011;778;50.120;8.698;2023-01-29T11:25:09;11.40;;;10.13;;
1569;SDS011;778;50.120;8.698;2023-01-29T11:27:43;11.17;;;9.97;;
1569;SDS011;778;50.120;8.698;2023-01-29T11:30:17;12.93;;;9.73;;
1569;SDS011;778;50.120;8.698;2023-01-29T11:32:51;12.30;;;9.77;;
1569;SDS011;778;50.120;8.698;2023-01-29T11:35:36;14.53;;;11.40;;
1569;SDS011;778;50.120;8.698;2023-01-29T11:38:05;12.57;;;11.37;;
1569;SDS011;778;50.120;8.698;2023-01-29T11:40:44;12.93;;;11.63;;
1569;SDS011;778;50.120;8.698;2023-01-29T11:43:27;13.70;;;10.20;;
1569;SDS011;778;50.120;8.698;2023-01-29T11:45:59;13.80;;;11.00;;
1569;SDS011;778;50.120;8.698;2023-01-29T11:48:39;13.80;;;10.87;;
1569;SDS011;778;50.120;8.698;2023-01-29T11:51:11;16.47;;;13.47;;
1569;SDS011;778;50.120;8.698;2023-01-29T11:53:50;13.23;;;11.13;;
1569;SDS011;778;50.120;8.698;2023-01-29T11:56:22;13.10;;;11.80;;
1569;SDS011;778;50.120;8.698;2023-01-29T11:58:55;13.70;;;11.90;;
1569;SDS011;778;50.120;8.698;2023-01-29T12:01:29;13.43;;;11.50;;
1569;SDS011;778;50.120;8.698;2023-01-29T12:04:02;13.00;;;11.63;;
1569;SDS011;778;50.120;8.698;2023-01-29T12:06:43;12.53;;;10.57;;
1569;SDS011;778;50.120;8.698;2023-01-29T12:09:16;11.97;;;10.33;;
1569;SDS011;778;50.120;8.698;2023-01-29T12:11:47;12.53;;;11.20;;
1569;SDS011;778;50.120;8.698;2023-01-29T12:14:25;12.67;;;11.07;;
1569;SDS011;778;50.120;8.698;2023-01-29T12:17:00;12.80;;;11.53;;
1569;SDS011;778;50.120;8.698;2023-01-29T12:19:33;13.77;;;12.37;;
1569;SDS011;778;50.120;8.698;2023-01-29T12:22:10;14.00;;;12.00;;
1569;SDS011;778;50.120;8.698;2023-01-29T12:24:47;13.70;;;11.20;;
1569;SDS011;778;50.120;8.698;2023-01-29T12:27:21;10.90;;;9.80;;
1569;SDS011;778;50.120;8.698;2023-01-29T12:29:59;14.83;;;10.47;;
1569;SDS011;778;50.120;8.698;2023-01-29T12:32:38;11.80;;;10.60;;
1569;SDS011;778;50.120;8.698;2023-01-29T12:35:16;14.67;;;12.50;;
1569;SDS011;778;50.120;8.698;2023-01-29T12:37:50;12.13;;;10.70;;
1569;SDS011;778;50.120;8.698;2023-01-29T12:40:28;13.13;;;11.70;;
1569;SDS011;778;50.120;8.698;2023-01-29T12:43:02;15.93;;;12.03;;
1569;SDS011;778;50.120;8.698;2023-01-29T12:45:37;13.70;;;10.77;;
1569;SDS011;778;50.120;8.698;2023-01-29T12:48:09;12.43;;;11.00;;
1569;SDS011;778;50.120;8.698;2023-01-29T12:50:42;12.13;;;10.23;;
1569;SDS011;778;50.120;8.698;2023-01-29T12:53:16;13.47;;;10.60;;
1569;SDS011;778;50.120;8.698;2023-01-29T12:55:54;12.07;;;10.70;;
1569;SDS011;778;50.120;8.698;2023-01-29T12:58:28;13.80;;;12.33;;
1569;SDS011;778;50.120;8.698;2023-01-29T13:01:02;14.50;;;12.23;;
1569;SDS011;778;50.120;8.698;2023-01-29T13:03:43;12.33;;;10.30;;
1569;SDS011;778;50.120;8.698;2023-01-29T13:06:19;13.50;;;10.30;;
1569;SDS011;778;50.120;8.698;2023-01-29T13:08:56;15.67;;;11.80;;
1569;SDS011;778;50.120;8.698;2023-01-29T13:11:32;15.77;;;11.47;;
1569;SDS011;778;50.120;8.698;2023-01-29T13:14:08;14.50;;;11.07;;
1569;SDS011;778;50.120;8.698;2023-01-29T13:16:46;15.07;;;11.80;;
1569;SDS011;778;50.120;8.698;2023-01-29T13:19:24;12.10;;;10.00;;
1569;SDS011;778;50.120;8.698;2023-01-29T13:21:58;9.37;;;8.47;;
1569;SDS011;778;50.120;8.698;2023-01-29T13:24:33;10.90;;;7.63;;
1569;SDS011;778;50.120;8.698;2023-01-29T13:27:06;9.30;;;8.37;;
1569;SDS011;778;50.120;8.698;2023-01-29T13:29:51;11.00;;;9.90;;
1569;SDS011;778;50.120;8.698;2023-01-29T13:32:21;10.00;;;8.97;;
1569;SDS011;778;50.120;8.698;2023-01-29T13:34:53;8.53;;;7.23;;
1569;SDS011;778;50.120;8.698;2023-01-29T13:37:25;8.40;;;7.60;;
1569;SDS011;778;50.120;8.698;2023-01-29T13:39:59;9.13;;;7.87;;
1569;SDS011;778;50.120;8.698;2023-01-29T13:42:34;9.37;;;6.97;;
1569;SDS011;778;50.120;8.698;2023-01-29T13:45:07;10.07;;;9.07;;
1569;SDS011;778;50.120;8.698;2023-01-29T13:47:45;10.40;;;7.70;;
1569;SDS011;778;50.120;8.698;2023-01-29T13:50:18;8.57;;;7.77;;
1569;SDS011;778;50.120;8.698;2023-01-29T13:52:54;9.67;;;8.67;;
1569;SDS011;778;50.120;8.698;2023-01-29T13:55:28;8.77;;;7.93;;
1569;SDS011;778;50.120;8.698;2023-01-29T13:58:02;10.27;;;8.20;;
1569;SDS011;778;50.120;8.698;2023-01-29T14:12:33;10.53;;;9.10;;
1569;SDS011;778;50.120;8.698;2023-01-29T14:18:01;9.70;;;8.67;;
1569;SDS011;778;50.120;8.698;2023-01-29T14:20:49;9.97;;;8.53;;
1569;SDS011;778;50.120;8.698;2023-01-29T14:23:27;8.50;;;7.70;;
1569;SDS011;778;50.120;8.698;2023-01-29T14:26:18;10.27;;;9.10;;
1569;SDS011;778;50.120;8.698;2023-01-29T14:29:02;11.57;;;8.70;;
1569;SDS011;778;50.120;8.698;2023-01-29T14:31:47;12.00;;;9.13;;
1569;SDS011;778;50.120;8.698;2023-01-29T14:34:21;9.23;;;8.33;;
1569;SDS011;778;50.120;8.698;2023-01-29T14:36:54;9.47;;;7.60;;
1569;SDS011;778;50.120;8.698;2023-01-29T14:39:30;8.97;;;8.17;;
1569;SDS011;778;50.120;8.698;2023-01-29T14:42:12;8.77;;;7.97;;
1569;SDS011;778;50.120;8.698;2023-01-29T14:44:57;9.30;;;8.40;;
1569;SDS011;778;50.120;8.698;2023-01-29T14:51:04;10.47;;;8.20;;
1569;SDS011;778;50.120;8.698;2023-01-29T14:53:44;9.60;;;8.70;;
1569;SDS011;778;50.120;8.698;2023-01-29T14:56:25;10.73;;;9.63;;
1569;SDS011;778;50.120;8.698;2023-01-29T14:59:09;11.97;;;9.53;;
1569;SDS011;778;50.120;8.698;2023-01-29T15:01:46;9.17;;;8.17;;
1569;SDS011;778;50.120;8.698;2023-01-29T15:04:19;9.47;;;8.57;;
1569;SDS011;778;50.120;8.698;2023-01-29T15:06:54;10.30;;;9.30;;
1569;SDS011;778;50.120;8.698;2023-01-29T15:09:29;10.63;;;9.43;;
1569;SDS011;778;50.120;8.698;2023-01-29T15:12:11;11.40;;;8.23;;
1569;SDS011;778;50.120;8.698;2023-01-29T15:14:48;10.10;;;8.60;;
1569;SDS011;778;50.120;8.698;2023-01-29T15:17:31;11.83;;;8.00;;
1569;SDS011;778;50.120;8.698;2023-01-29T15:20:24;8.63;;;7.73;;
1569;SDS011;778;50.120;8.698;2023-01-29T15:22:55;10.10;;;8.93;;
1569;SDS011;778;50.120;8.698;2023-01-29T15:25:24;9.93;;;8.90;;
1569;SDS011;778;50.120;8.698;2023-01-29T15:27:54;8.37;;;7.60;;
1569;SDS011;778;50.120;8.698;2023-01-29T15:30:28;8.40;;;6.87;;
1569;SDS011;778;50.120;8.698;2023-01-29T15:33:01;8.70;;;7.70;;
1569;SDS011;778;50.120;8.698;2023-01-29T15:35:33;8.10;;;7.40;;
1569;SDS011;778;50.120;8.698;2023-01-29T15:38:04;7.90;;;7.10;;
1569;SDS011;778;50.120;8.698;2023-01-29T15:40:39;8.53;;;7.00;;
1569;SDS011;778;50.120;8.698;2023-01-29T15:43:17;7.67;;;6.47;;
1569;SDS011;778;50.120;8.698;2023-01-29T15:45:48;7.90;;;6.47;;
1569;SDS011;778;50.120;8.698;2023-01-29T15:48:21;8.40;;;6.90;;
1569;SDS011;778;50.120;8.698;2023-01-29T15:50:58;7.90;;;7.10;;
1569;SDS011;778;50.120;8.698;2023-01-29T15:53:31;12.33;;;7.97;;
1569;SDS011;778;50.120;8.698;2023-01-29T15:56:06;10.77;;;9.07;;
1569;SDS011;778;50.120;8.698;2023-01-29T15:58:37;10.13;;;8.13;;
1569;SDS011;778;50.120;8.698;2023-01-29T16:01:06;7.90;;;7.20;;
1569;SDS011;778;50.120;8.698;2023-01-29T16:03:39;8.43;;;7.63;;
1569;SDS011;778;50.120;8.698;2023-01-29T16:06:08;9.30;;;7.87;;
1569;SDS011;778;50.120;8.698;2023-01-29T16:08:37;8.50;;;7.70;;
1569;SDS011;778;50.120;8.698;2023-01-29T16:11:06;7.07;;;6.27;;
1569;SDS011;778;50.120;8.698;2023-01-29T16:13:37;8.50;;;7.30;;
1569;SDS011;778;50.120;8.698;2023-01-29T16:16:16;9.70;;;7.80;;
1569;SDS011;778;50.120;8.698;2023-01-29T16:18:49;8.70;;;7.80;;
1569;SDS011;778;50.120;8.698;2023-01-29T16:21:26;11.93;;;8.30;;
1569;SDS011;778;50.120;8.698;2023-01-29T16:23:58;7.97;;;7.17;;
1569;SDS011;778;50.120;8.698;2023-01-29T16:26:31;9.43;;;8.30;;